Hanover Park, Illinois
Current Conditions -  °F | °C
As of 3:52 AM on Friday 24 Oct 2014 (Local Time) from KDPA Reporting Station
Overcast Overcast  
Wind Chill: 53°   Ceiling: 2400
Heat Index: 53°   Visibility: 10mi
Dew Point: 46°   Wind: 3mph
Humidity: 77%   Direction: 200°SSW
Pressure: 30.04"   Gusts: NA
Location:  41.99°N, 88.16°W
Report Text: KDPA 240852Z 20003KT 10SM OVC024 12/08 A3004 RMK AO2 SLP173 T01170078 53000
Loading
Personal Weather Stations






























Interactive Weather Map
Tropical Storm Tracking
New forecast layout! Learn more

10-Day Weather Forecast

Advertisements
Track Severe Weather on mobile